Time;durP1;ratioP1;P1;durP2;ratioP2;P2;SDS_P1;SDS_P2;PMS_P1;PMS_P2;Temp;Humidity;BMP_temperature;BMP_pressure;BME280_temperature;BME280_humidity;BME280_pressure;Samples;Min_cycle;Max_cycle;Signal;HPM_P1;HPM_P2
2023/08/12 00:00:31;;;;;;;8.00;3.20;;;;;;;23.54;100.00;100616.05;106256;1253;63650;-88
2023/08/12 00:03:20;;;;;;;5.60;3.00;;;;;;;23.47;100.00;100613.50;106382;1254;61342;-88
2023/08/12 00:06:08;;;;;;;3.60;3.00;;;;;;;23.42;100.00;100614.27;106332;1257;73807;-89
2023/08/12 00:08:56;;;;;;;6.20;3.10;;;;;;;23.38;100.00;100614.44;106563;1253;67815;-89
2023/08/12 00:11:44;;;;;;;3.60;2.70;;;;;;;23.34;100.00;100620.21;106258;1254;73476;-89
2023/08/12 00:14:32;;;;;;;7.40;3.40;;;;;;;23.27;100.00;100621.90;106308;1254;60451;-90
2023/08/12 00:17:21;;;;;;;6.10;3.10;;;;;;;23.31;100.00;100620.70;106214;1254;61311;-89
2023/08/12 00:20:10;;;;;;;5.00;3.00;;;;;;;23.28;100.00;100628.45;106334;1254;73797;-89
2023/08/12 00:22:58;;;;;;;4.50;3.10;;;;;;;23.27;100.00;100631.12;106303;1257;69688;-87
2023/08/12 00:25:46;;;;;;;5.70;3.10;;;;;;;23.18;100.00;100635.36;106018;1254;72666;-88
2023/08/12 00:28:35;;;;;;;6.60;3.20;;;;;;;23.12;100.00;100635.93;106298;1257;61806;-89
2023/08/12 00:31:23;;;;;;;5.30;3.10;;;;;;;23.20;100.00;100639.48;106337;1259;60361;-89
2023/08/12 00:34:11;;;;;;;7.20;3.10;;;;;;;23.22;100.00;100639.28;106278;1256;74038;-88
2023/08/12 00:36:59;;;;;;;6.40;2.80;;;;;;;23.14;100.00;100642.77;105909;1253;67343;-86
2023/08/12 00:39:47;;;;;;;5.30;3.30;;;;;;;22.97;100.00;100646.20;105915;1256;74462;-89
2023/08/12 00:42:35;;;;;;;4.40;3.60;;;;;;;22.95;100.00;100645.84;106148;1254;61413;-88
2023/08/12 00:45:23;;;;;;;4.90;2.90;;;;;;;23.01;100.00;100647.59;106285;1254;61546;-88
2023/08/12 00:48:11;;;;;;;4.70;2.90;;;;;;;22.94;100.00;100651.45;105974;1254;75084;-88
2023/08/12 00:51:03;;;;;;;6.00;3.90;;;;;;;23.04;100.00;100653.90;106101;1253;67427;-87
2023/08/12 00:53:51;;;;;;;7.80;3.90;;;;;;;23.03;100.00;100655.23;106325;1255;73708;-88
2023/08/12 00:56:40;;;;;;;5.20;3.50;;;;;;;23.00;100.00;100650.83;106149;1257;62019;-89
2023/08/12 00:59:28;;;;;;;9.70;4.40;;;;;;;23.07;100.00;100652.61;106056;1253;60485;-88
2023/08/12 01:02:16;;;;;;;4.90;3.50;;;;;;;23.02;100.00;100649.30;106152;1254;73877;-87
2023/08/12 01:05:05;;;;;;;5.40;3.40;;;;;;;23.02;100.00;100652.30;106163;1253;69723;-88
2023/08/12 01:07:53;;;;;;;6.70;3.90;;;;;;;23.02;100.00;100649.94;106482;1253;71150;-88
2023/08/12 01:10:45;;;;;;;5.10;3.60;;;;;;;22.99;100.00;100647.93;106314;1252;62855;-88
2023/08/12 01:13:41;;;;;;;7.60;4.00;;;;;;;22.98;100.00;100651.83;106101;1257;61400;-88
2023/08/12 01:16:31;;;;;;;5.50;3.70;;;;;;;22.91;100.00;100653.28;105960;1254;74858;-87
2023/08/12 01:19:38;;;;;;;6.70;3.50;;;;;;;22.80;100.00;100656.33;106407;1254;68755;-87
2023/08/12 01:22:27;;;;;;;6.40;4.10;;;;;;;22.74;100.00;100654.61;106132;1253;73622;-87
2023/08/12 01:25:15;;;;;;;5.80;4.10;;;;;;;22.70;100.00;100649.45;106031;1254;61331;-88
2023/08/12 01:28:04;;;;;;;8.40;3.50;;;;;;;22.65;100.00;100650.86;105956;1254;61255;-88
2023/08/12 01:31:28;;;;;;;6.10;3.60;;;;;;;22.59;100.00;100652.45;106096;1256;75992;-88
2023/08/12 01:34:21;;;;;;;7.20;3.90;;;;;;;22.64;100.00;100649.77;106242;1252;70145;-87
2023/08/12 01:37:11;;;;;;;5.80;4.00;;;;;;;22.68;100.00;100646.48;106343;1254;71218;-87
2023/08/12 01:40:01;;;;;;;7.30;3.90;;;;;;;22.65;100.00;100646.95;107742;1254;62757;-87
2023/08/12 01:42:49;;;;;;;5.30;4.20;;;;;;;22.66;100.00;100649.92;106182;1259;61286;-90
2023/08/12 01:45:38;;;;;;;4.80;3.50;;;;;;;22.59;100.00;100645.58;106005;1254;74800;-85
2023/08/12 01:48:26;;;;;;;8.30;3.80;;;;;;;22.55;100.00;100644.86;106262;1254;69676;-88
2023/08/12 01:51:15;;;;;;;7.50;3.80;;;;;;;22.53;100.00;100643.21;106034;1254;72685;-88
2023/08/12 01:54:03;;;;;;;5.50;3.80;;;;;;;22.49;100.00;100642.29;105767;1257;60504;-88
2023/08/12 01:56:51;;;;;;;5.50;3.70;;;;;;;22.49;100.00;100643.88;105980;1255;60123;-87
2023/08/12 01:59:40;;;;;;;6.60;4.10;;;;;;;22.53;100.00;100648.86;106202;1253;73629;-89
2023/08/12 02:02:28;;;;;;;6.90;4.00;;;;;;;22.53;100.00;100646.30;106534;1254;69030;-88
2023/08/12 02:05:16;;;;;;;6.60;3.90;;;;;;;22.48;100.00;100642.36;106295;1253;72618;-88
2023/08/12 02:08:05;;;;;;;5.60;4.20;;;;;;;22.47;100.00;100644.07;106052;1252;63017;-87
2023/08/12 02:10:55;;;;;;;6.10;4.30;;;;;;;22.49;100.00;100639.98;106028;1257;60777;-90
2023/08/12 02:13:43;;;;;;;6.40;4.40;;;;;;;22.49;100.00;100645.30;106218;1253;74888;-88
2023/08/12 02:16:32;;;;;;;6.20;3.80;;;;;;;22.50;100.00;100644.79;106451;1253;68992;-86
2023/08/12 02:19:20;;;;;;;7.10;4.10;;;;;;;22.49;100.00;100643.48;106045;1254;73490;-86
2023/08/12 02:22:10;;;;;;;6.90;3.60;;;;;;;22.46;100.00;100647.20;106126;1258;60604;-88
2023/08/12 02:24:58;;;;;;;6.30;4.60;;;;;;;22.36;100.00;100662.06;106090;1254;61765;-85
2023/08/12 02:27:46;;;;;;;5.90;4.30;;;;;;;22.27;100.00;100665.53;106241;1254;73827;-87
2023/08/12 02:30:34;;;;;;;10.40;4.50;;;;;;;22.29;100.00;100667.27;105986;1254;68844;-87
2023/08/12 02:33:23;;;;;;;7.90;4.40;;;;;;;22.33;100.00;100667.16;106113;1253;73899;-85
2023/08/12 02:36:11;;;;;;;6.60;4.80;;;;;;;22.39;100.00;100665.00;105983;1254;204175;-86
2023/08/12 02:39:00;;;;;;;9.20;4.60;;;;;;;22.40;100.00;100663.45;106558;1256;60368;-88
2023/08/12 02:41:48;;;;;;;11.90;4.70;;;;;;;22.42;100.00;100668.51;106093;1256;74752;-86
2023/08/12 02:44:36;;;;;;;9.30;4.70;;;;;;;22.38;100.00;100670.84;106196;1255;68940;-86
2023/08/12 02:47:24;;;;;;;8.30;5.20;;;;;;;22.34;100.00;100671.70;106284;1254;72491;-87
2023/08/12 02:50:13;;;;;;;9.30;5.10;;;;;;;22.32;100.00;100673.17;106240;1254;61882;-86
2023/08/12 02:53:02;;;;;;;7.80;4.90;;;;;;;22.29;100.00;100673.95;106156;1256;61379;-88
2023/08/12 02:55:50;;;;;;;7.10;4.80;;;;;;;22.33;100.00;100673.83;106157;1252;72434;-87
2023/08/12 02:58:39;;;;;;;8.50;5.30;;;;;;;22.32;100.00;100677.77;106214;1254;69741;-86
2023/08/12 03:01:27;;;;;;;8.70;4.90;;;;;;;22.26;100.00;100683.25;106156;1254;73353;-88
2023/08/12 03:04:15;;;;;;;10.80;5.60;;;;;;;22.33;100.00;100683.36;106197;1253;63196;-88
2023/08/12 03:07:03;;;;;;;7.90;4.60;;;;;;;22.37;100.00;100685.38;106106;1254;60932;-88
2023/08/12 03:09:52;;;;;;;6.00;4.90;;;;;;;22.38;100.00;100685.95;106135;1253;73808;-87
2023/08/12 03:12:40;;;;;;;6.90;4.80;;;;;;;22.39;100.00;100686.96;106039;1253;69769;-88
2023/08/12 03:15:28;;;;;;;9.90;5.20;;;;;;;22.49;100.00;100687.95;106227;1254;72562;-87
2023/08/12 03:18:17;;;;;;;8.00;5.10;;;;;;;22.51;100.00;100692.30;106343;1254;61556;-88
2023/08/12 03:21:07;;;;;;;7.20;5.00;;;;;;;22.49;100.00;100689.45;106212;1257;60361;-86
2023/08/12 03:23:56;;;;;;;7.10;5.00;;;;;;;22.39;100.00;100692.04;106168;1253;74827;-86
2023/08/12 03:26:44;;;;;;;8.30;5.10;;;;;;;22.41;100.00;100694.34;106018;1254;68771;-88
2023/08/12 03:29:32;;;;;;;6.80;4.80;;;;;;;22.41;100.00;100700.38;108241;1253;74514;-88
2023/08/12 03:32:21;;;;;;;6.60;4.70;;;;;;;22.42;100.00;100700.31;106374;1253;61658;-86
2023/08/12 03:35:09;;;;;;;8.40;4.50;;;;;;;22.42;100.00;100699.60;106163;1254;60438;-86
2023/08/12 03:37:58;;;;;;;7.60;5.00;;;;;;;22.31;100.00;100700.40;106008;1254;75146;-86
2023/08/12 03:40:46;;;;;;;6.60;4.20;;;;;;;22.29;100.00;100697.98;106435;1254;69013;-86
2023/08/12 03:43:37;;;;;;;6.50;4.60;;;;;;;22.33;100.00;100699.27;106056;1252;73557;-86
2023/08/12 03:46:26;;;;;;;7.50;4.70;;;;;;;22.40;100.00;100702.41;106464;1253;62035;-88
2023/08/12 03:49:14;;;;;;;11.20;4.60;;;;;;;22.49;100.00;100698.20;106302;1253;60543;-90
2023/08/12 03:52:03;;;;;;;7.00;4.30;;;;;;;22.63;100.00;100695.52;106487;1254;73048;-89
2023/08/12 03:54:53;;;;;;;7.80;4.80;;;;;;;22.79;100.00;100687.44;106854;1254;68693;-90
2023/08/12 03:57:41;;;;;;;7.00;5.00;;;;;;;22.92;100.00;100687.31;106312;1256;73470;-88
2023/08/12 04:00:30;;;;;;;8.70;4.50;;;;;;;22.97;100.00;100685.15;106428;1254;60527;-90
2023/08/12 04:03:20;;;;;;;8.00;4.80;;;;;;;23.07;100.00;100687.00;106470;1256;60088;-90
2023/08/12 04:06:08;;;;;;;8.00;4.90;;;;;;;23.13;100.00;100690.02;106263;1253;75771;-88
2023/08/12 04:08:57;;;;;;;6.40;4.30;;;;;;;23.23;100.00;100691.62;106375;1254;69690;-91
2023/08/12 04:11:46;;;;;;;8.30;4.50;;;;;;;23.38;100.00;100688.44;106099;1252;73625;-88
2023/08/12 04:14:34;;;;;;;9.10;4.80;;;;;;;23.44;100.00;100682.03;106189;1256;61555;-88
2023/08/12 04:17:22;;;;;;;10.20;4.80;;;;;;;23.49;100.00;100681.06;106424;1252;59720;-87
2023/08/12 04:20:11;;;;;;;8.00;5.00;;;;;;;23.54;100.00;100686.43;106283;1254;74851;-88
2023/08/12 04:22:59;;;;;;;6.20;4.50;;;;;;;23.61;100.00;100687.30;106253;1254;69702;-88
2023/08/12 04:25:48;;;;;;;11.40;4.60;;;;;;;23.69;100.00;100692.02;106264;1253;73511;-87
2023/08/12 04:28:36;;;;;;;7.20;4.80;;;;;;;23.74;100.00;100687.23;106326;1254;60423;-88
2023/08/12 04:31:25;;;;;;;6.70;4.50;;;;;;;23.83;100.00;100687.69;106465;1253;60658;-89
2023/08/12 04:34:13;;;;;;;8.30;4.90;;;;;;;23.85;100.00;100684.61;106213;1254;74441;-88
2023/08/12 04:37:02;;;;;;;7.10;4.90;;;;;;;23.90;100.00;100683.38;106322;1254;67123;-91
2023/08/12 04:39:51;;;;;;;6.80;4.80;;;;;;;23.93;100.00;100684.81;105944;1259;74186;-87
2023/08/12 04:42:41;;;;;;;5.90;4.60;;;;;;;24.02;100.00;100686.44;106178;1252;63048;-91
2023/08/12 04:45:30;;;;;;;8.20;4.60;;;;;;;24.09;100.00;100691.05;105964;1252;61233;-90
2023/08/12 04:48:19;;;;;;;6.00;4.40;;;;;;;24.15;100.00;100686.89;106188;1252;74853;-88
2023/08/12 04:51:07;;;;;;;5.80;4.80;;;;;;;24.19;100.00;100688.73;106321;1254;68510;-89
2023/08/12 04:53:56;;;;;;;9.60;4.70;;;;;;;24.24;100.00;100680.77;105890;1253;74382;-90
2023/08/12 04:56:44;;;;;;;8.10;4.50;;;;;;;24.39;100.00;100680.99;106154;1252;62264;-87
2023/08/12 04:59:32;;;;;;;8.20;4.70;;;;;;;24.53;100.00;100684.65;106603;1254;60747;-87
2023/08/12 05:02:22;;;;;;;8.80;4.80;;;;;;;24.67;100.00;100685.24;106124;1254;74875;-86
2023/08/12 05:05:10;;;;;;;8.70;4.40;;;;;;;24.79;100.00;100681.71;106294;1254;67654;-86
2023/08/12 05:07:59;;;;;;;6.20;4.60;;;;;;;24.91;100.00;100683.94;106265;1254;73476;-86
2023/08/12 05:10:48;;;;;;;7.60;4.70;;;;;;;24.99;100.00;100684.64;105912;1253;60629;-88
2023/08/12 05:13:37;;;;;;;6.20;5.00;;;;;;;25.06;100.00;100682.77;106073;1257;60392;-90
2023/08/12 05:16:25;;;;;;;6.60;5.00;;;;;;;25.13;100.00;100687.86;106368;1257;75302;-88
2023/08/12 05:19:14;;;;;;;7.90;5.10;;;;;;;25.21;100.00;100686.98;106178;1255;61091;-86
2023/08/12 05:22:02;;;;;;;6.40;4.40;;;;;;;25.23;100.00;100689.42;106417;1254;65171;-86
2023/08/12 05:24:50;;;;;;;7.60;4.10;;;;;;;25.34;100.00;100688.31;106009;1259;60426;-87
2023/08/12 05:27:38;;;;;;;7.30;4.30;;;;;;;25.43;100.00;100690.45;106185;1253;60430;-87
2023/08/12 05:30:28;;;;;;;5.90;4.10;;;;;;;25.51;100.00;100690.27;106235;1252;67071;-88
2023/08/12 05:33:16;;;;;;;6.50;4.20;;;;;;;25.63;100.00;100693.42;106462;1253;70329;-89
2023/08/12 05:36:04;;;;;;;7.80;4.40;;;;;;;25.75;100.00;100693.20;106392;1253;65149;-92
2023/08/12 05:38:53;;;;;;;8.60;4.00;;;;;;;25.84;100.00;100698.94;106209;1253;60447;-87
2023/08/12 05:41:41;;;;;;;9.30;4.60;;;;;;;25.97;100.00;100697.77;106298;1251;60514;-89
2023/08/12 05:44:29;;;;;;;7.90;4.40;;;;;;;26.08;100.00;100694.72;106404;1254;66447;-91
2023/08/12 05:47:18;;;;;;;6.30;4.00;;;;;;;26.22;100.00;100695.64;106310;1254;60892;-86
2023/08/12 05:50:06;;;;;;;5.80;3.70;;;;;;;26.25;100.00;100697.99;106588;1254;64840;-86
2023/08/12 05:52:54;;;;;;;12.00;4.50;;;;;;;26.28;100.00;100696.77;106097;1256;60558;-88
2023/08/12 05:55:43;;;;;;;6.70;3.90;;;;;;;26.35;100.00;100697.01;106136;1252;60501;-91
2023/08/12 05:58:31;;;;;;;7.80;4.00;;;;;;;26.42;100.00;100700.68;106242;1252;65188;-92
2023/08/12 06:01:19;;;;;;;7.00;3.70;;;;;;;26.50;100.00;100701.52;106389;1252;61169;-91
2023/08/12 06:04:07;;;;;;;6.10;3.80;;;;;;;26.65;100.00;100702.27;106405;1254;64010;-92
2023/08/12 06:06:55;;;;;;;7.30;3.80;;;;;;;26.81;100.00;100703.73;106227;1254;60594;-90
2023/08/12 06:09:43;;;;;;;7.20;4.10;;;;;;;26.93;100.00;100706.50;106379;1254;60470;-86
2023/08/12 06:12:32;;;;;;;5.70;4.10;;;;;;;27.05;100.00;100703.48;106712;1254;65060;-87
2023/08/12 06:15:21;;;;;;;6.50;3.90;;;;;;;27.17;100.00;100698.80;106334;1254;60860;-89
2023/08/12 06:18:18;;;;;;;8.10;4.20;;;;;;;27.29;100.00;100691.06;106204;1254;65055;-89
2023/08/12 06:21:07;;;;;;;6.70;4.40;;;;;;;27.38;100.00;100693.88;106450;1256;60485;-89
2023/08/12 06:23:55;;;;;;;6.70;4.10;;;;;;;27.48;100.00;100695.55;106458;1256;60459;-90
2023/08/12 06:26:43;;;;;;;6.70;3.50;;;;;;;27.60;100.00;100695.08;106352;1255;65288;-88
2023/08/12 06:29:32;;;;;;;6.10;3.90;;;;;;;27.74;99.06;100695.27;106370;1253;61175;-87
2023/08/12 06:32:20;;;;;;;7.10;4.10;;;;;;;27.84;96.84;100696.16;106698;1253;64085;-85
2023/08/12 06:35:08;;;;;;;5.90;3.90;;;;;;;27.91;96.94;100696.20;106316;1252;60472;-86
2023/08/12 06:37:58;;;;;;;6.10;3.80;;;;;;;27.97;95.15;100696.73;106602;1256;60424;-89
2023/08/12 06:40:46;;;;;;;4.80;3.80;;;;;;;28.04;92.61;100691.87;106788;1256;66069;-86
2023/08/12 06:43:35;;;;;;;6.90;4.10;;;;;;;28.15;90.77;100692.23;106162;1254;61097;-86
2023/08/12 06:46:23;;;;;;;5.80;4.10;;;;;;;28.26;90.00;100693.58;106119;1253;62587;-87
2023/08/12 06:49:12;;;;;;;9.40;4.00;;;;;;;28.32;89.51;100694.41;106438;1253;60444;-87
2023/08/12 06:52:00;;;;;;;6.50;4.00;;;;;;;28.37;92.54;100692.41;106076;1254;60469;-87
2023/08/12 06:54:48;;;;;;;7.90;3.90;;;;;;;28.52;91.69;100689.60;106387;1252;65095;-86
2023/08/12 06:57:36;;;;;;;5.00;4.00;;;;;;;28.62;87.86;100691.89;106226;1254;60469;-87
2023/08/12 07:00:25;;;;;;;7.40;4.30;;;;;;;28.72;87.11;100690.72;106363;1254;64686;-89
2023/08/12 07:03:13;;;;;;;6.40;3.70;;;;;;;28.81;84.26;100691.23;106774;1253;60382;-89
2023/08/12 07:06:01;;;;;;;5.50;4.10;;;;;;;28.92;83.26;100689.16;106283;1253;60566;-88
2023/08/12 07:08:49;;;;;;;8.00;4.20;;;;;;;29.02;82.85;100686.75;106483;1252;66597;-84
2023/08/12 07:11:38;;;;;;;6.00;4.40;;;;;;;29.05;81.50;100695.61;106366;1252;60434;-88
2023/08/12 07:14:27;;;;;;;7.10;3.90;;;;;;;29.10;82.50;100692.19;106442;1256;64993;-88
2023/08/12 07:17:16;;;;;;;6.90;4.20;;;;;;;29.19;84.24;100693.39;106489;1254;60444;-86
2023/08/12 07:20:05;;;;;;;7.80;4.00;;;;;;;29.32;83.94;100690.02;106346;1256;60552;-88
2023/08/12 07:22:53;;;;;;;4.50;4.00;;;;;;;29.52;80.98;100696.67;106535;1254;63640;-88
2023/08/12 07:25:41;;;;;;;6.20;3.80;;;;;;;29.65;77.34;100697.89;106256;1256;60978;-86
2023/08/12 07:28:29;;;;;;;8.30;3.80;;;;;;;29.77;75.04;100703.19;106843;1254;64054;-87
2023/08/12 07:31:18;;;;;;;6.30;3.80;;;;;;;29.85;71.74;100702.86;106648;1252;60418;-86
2023/08/12 07:34:06;;;;;;;5.20;3.50;;;;;;;29.93;73.21;100706.63;106459;1253;60376;-88
2023/08/12 07:36:54;;;;;;;6.90;3.20;;;;;;;30.09;72.36;100705.45;106398;1256;66029;-86
2023/08/12 07:39:43;;;;;;;7.10;4.10;;;;;;;30.24;67.55;100711.07;106342;1256;60555;-85
2023/08/12 07:42:31;;;;;;;6.50;3.60;;;;;;;30.23;66.91;100711.30;106221;1254;63920;-89
2023/08/12 07:45:21;;;;;;;8.20;3.40;;;;;;;30.23;67.05;100714.70;106356;1254;60440;-86
2023/08/12 07:48:09;;;;;;;15.50;7.10;;;;;;;30.34;65.27;100711.36;106270;1256;60336;-88
2023/08/12 07:50:58;;;;;;;5.10;3.50;;;;;;;30.45;63.43;100707.93;106267;1254;66171;-85
2023/08/12 07:53:46;;;;;;;5.60;3.20;;;;;;;30.56;62.63;100709.64;106495;1254;61014;-86
2023/08/12 07:56:34;;;;;;;5.20;3.60;;;;;;;30.61;63.08;100712.27;106346;1253;65188;-86
2023/08/12 07:59:22;;;;;;;4.50;3.50;;;;;;;30.59;61.83;100714.06;106440;1256;60777;-85
2023/08/12 08:02:10;;;;;;;8.10;3.60;;;;;;;30.62;60.19;100716.86;106503;1253;60476;-87
2023/08/12 08:04:59;;;;;;;7.20;4.10;;;;;;;30.69;59.18;100721.91;106438;1256;65759;-85
2023/08/12 08:07:47;;;;;;;6.60;3.10;;;;;;;30.76;60.79;100721.55;106594;1255;60572;-90
2023/08/12 08:10:36;;;;;;;5.70;3.30;;;;;;;30.84;59.98;100721.70;106324;1254;64116;-87
2023/08/12 08:13:24;;;;;;;5.40;3.30;;;;;;;30.84;58.55;100721.94;106568;1256;60483;-88
2023/08/12 08:16:12;;;;;;;4.20;3.40;;;;;;;30.98;59.65;100721.44;106420;1256;60555;-86
2023/08/12 08:19:01;;;;;;;4.10;3.20;;;;;;;31.13;57.34;100723.52;106323;1256;66478;-85
2023/08/12 08:21:50;;;;;;;5.90;3.60;;;;;;;31.17;54.79;100727.04;106682;1254;69566;-88
2023/08/12 08:24:38;;;;;;;8.60;3.70;;;;;;;31.18;55.05;100725.58;106508;1254;63988;-89
2023/08/12 08:27:26;;;;;;;4.90;3.40;;;;;;;31.22;53.03;100725.14;106265;1256;60490;-90
2023/08/12 08:30:14;;;;;;;5.70;3.50;;;;;;;31.36;53.39;100721.73;106565;1254;60513;-85
2023/08/12 08:33:03;;;;;;;6.10;3.60;;;;;;;31.47;54.01;100721.33;106429;1254;65413;-85
2023/08/12 08:35:51;;;;;;;6.10;3.30;;;;;;;31.57;54.83;100725.20;106267;1254;60400;-88
2023/08/12 08:38:40;;;;;;;7.80;3.30;;;;;;;31.70;53.61;100723.95;106452;1259;65000;-84
2023/08/12 08:41:30;;;;;;;5.60;3.30;;;;;;;31.78;52.54;100727.69;106420;1254;60329;-87
2023/08/12 08:44:18;;;;;;;6.90;3.20;;;;;;;31.87;50.94;100727.27;106192;1254;60412;-85
2023/08/12 08:47:06;;;;;;;4.20;3.30;;;;;;;32.02;49.95;100721.72;106418;1252;66301;-85
2023/08/12 08:49:56;;;;;;;7.50;3.30;;;;;;;32.01;48.67;100725.85;106771;1256;60368;-85
2023/08/12 08:52:44;;;;;;;9.00;3.60;;;;;;;31.96;49.60;100725.91;106889;1254;65019;-84
2023/08/12 08:55:33;;;;;;;3.50;2.90;;;;;;;31.97;47.50;100727.99;106235;1254;60371;-88
2023/08/12 08:58:20;;;;;;;6.80;3.40;;;;;;;31.86;45.69;100733.73;106467;1254;60431;-83
2023/08/12 09:01:13;;;;;;;6.10;3.40;;;;;;;31.65;44.31;100735.38;106136;1254;65856;-85
2023/08/12 09:04:03;;;;;;;6.40;3.40;;;;;;;31.49;44.98;100733.75;106177;1253;60816;-86
2023/08/12 09:06:51;;;;;;;4.70;3.00;;;;;;;31.54;46.70;100732.09;106282;1253;64126;-85
2023/08/12 09:09:48;;;;;;;4.50;3.00;;;;;;;31.70;46.78;100731.46;105961;1256;60556;-87
2023/08/12 09:12:37;;;;;;;7.20;3.20;;;;;;;31.77;47.32;100736.41;106245;1256;60472;-85
2023/08/12 09:15:25;;;;;;;3.60;3.10;;;;;;;31.73;47.78;100736.13;106438;1256;66783;-85
2023/08/12 09:18:13;;;;;;;6.60;3.40;;;;;;;31.58;48.36;100741.58;106434;1254;61080;-85
2023/08/12 09:21:02;;;;;;;4.20;3.20;;;;;;;31.51;47.78;100737.20;106244;1254;63891;-89
2023/08/12 09:23:50;;;;;;;4.70;3.10;;;;;;;31.55;47.93;100734.27;106592;1254;60451;-84
2023/08/12 09:26:38;;;;;;;6.60;3.40;;;;;;;31.69;47.47;100732.20;106424;1254;60357;-88
2023/08/12 09:29:31;;;;;;;5.00;3.20;;;;;;;31.91;46.37;100739.02;106186;1258;66128;-88
2023/08/12 09:32:19;;;;;;;;;;;;;;;31.94;43.60;100752.16;106572;1254;61401;-87
2023/08/12 09:35:16;;;;;;;4.90;3.20;;;;;;;31.71;42.77;100752.35;106183;1253;64052;-86
2023/08/12 09:38:04;;;;;;;5.70;3.00;;;;;;;31.57;45.10;100751.20;107629;1253;60367;-87
2023/08/12 09:40:53;;;;;;;4.20;2.90;;;;;;;31.66;45.19;100752.81;106552;1256;60354;-87
2023/08/12 09:43:45;;;;;;;4.70;3.00;;;;;;;31.84;43.78;100755.71;107459;1254;66062;-90
2023/08/12 09:46:33;;;;;;;6.00;3.20;;;;;;;31.93;42.71;100760.31;106259;1254;60558;-90
2023/08/12 09:49:21;;;;;;;5.80;3.10;;;;;;;31.83;43.10;100761.61;106271;1253;64039;-86
2023/08/12 09:52:10;;;;;;;5.80;3.20;;;;;;;31.68;43.62;100759.89;106246;1258;60450;-90
2023/08/12 09:54:59;;;;;;;4.70;2.80;;;;;;;31.46;42.76;100766.92;106437;1256;60484;-86
2023/08/12 09:57:49;;;;;;;4.10;3.40;;;;;;;31.27;42.33;100766.48;106142;1254;64127;-89
2023/08/12 10:00:37;;;;;;;5.00;2.80;;;;;;;31.31;43.42;100762.67;106383;1256;60952;-85
2023/08/12 10:03:26;;;;;;;5.10;2.50;;;;;;;31.55;43.71;100765.81;106598;1257;65312;-89
2023/08/12 10:06:18;;;;;;;4.10;2.70;;;;;;;31.79;42.69;100765.84;106170;1254;60563;-87
2023/08/12 10:09:08;;;;;;;5.40;2.70;;;;;;;31.86;39.93;100767.47;106671;1254;58477;-87
2023/08/12 10:11:56;;;;;;;4.10;2.90;;;;;;;31.68;39.74;100769.81;106137;1254;65028;-87
2023/08/12 10:14:47;;;;;;;6.70;3.20;;;;;;;31.48;40.41;100771.52;106472;1254;61231;-87
2023/08/12 10:17:35;;;;;;;4.50;2.90;;;;;;;31.48;41.57;100772.65;106126;1257;64039;-88
2023/08/12 10:20:31;;;;;;;6.20;3.10;;;;;;;31.62;40.71;100766.88;106171;1254;60538;-84
2023/08/12 10:23:20;;;;;;;4.10;3.20;;;;;;;31.79;39.73;100767.62;106254;1252;60454;-86
2023/08/12 10:26:08;;;;;;;5.20;3.00;;;;;;;31.95;39.84;100771.04;105971;1254;65204;-87
2023/08/12 10:28:56;;;;;;;5.10;2.80;;;;;;;32.11;40.70;100774.19;106326;1254;60565;-86
2023/08/12 10:31:46;;;;;;;5.20;3.30;;;;;;;32.22;40.01;100776.83;106597;1254;64872;-89
2023/08/12 10:34:34;;;;;;;7.40;2.90;;;;;;;32.33;37.49;100769.51;106461;1256;60503;-86
2023/08/12 10:37:23;;;;;;;6.20;2.80;;;;;;;32.46;37.78;100774.39;106279;1254;60365;-84
2023/08/12 10:40:22;;;;;;;8.10;3.30;;;;;;;32.58;37.73;100776.27;106119;1256;66296;-84
2023/08/12 10:43:12;;;;;;;4.00;2.80;;;;;;;32.63;37.38;100778.73;106479;1254;63388;-85
2023/08/12 10:46:00;;;;;;;4.10;3.00;;;;;;;32.68;37.80;100779.95;106439;1256;62891;-87
2023/08/12 10:48:59;;;;;;;5.40;3.30;;;;;;;32.80;37.85;100782.79;106529;1256;60365;-85
2023/08/12 10:51:52;;;;;;;4.70;2.90;;;;;;;32.98;38.12;100787.15;106426;1253;60329;-86
2023/08/12 10:54:40;;;;;;;7.00;3.30;;;;;;;33.10;36.73;100788.63;106403;1256;66340;-85
2023/08/12 10:57:39;;;;;;;3.90;3.10;;;;;;;33.23;36.52;100786.33;106363;1256;61872;-87
2023/08/12 11:00:28;;;;;;;7.20;2.90;;;;;;;33.24;36.02;100790.59;106300;1259;63848;-86
2023/08/12 11:03:16;;;;;;;5.30;3.00;;;;;;;33.09;35.30;100792.49;106375;1254;60567;-85
2023/08/12 11:06:04;;;;;;;5.30;2.60;;;;;;;32.99;35.76;100790.85;106166;1252;60363;-85
2023/08/12 11:08:52;;;;;;;6.20;2.80;;;;;;;33.05;36.26;100795.58;106251;1256;65090;-85
2023/08/12 11:11:40;;;;;;;6.00;2.90;;;;;;;33.12;35.93;100798.88;106167;1255;61451;-84
2023/08/12 11:14:29;;;;;;;5.50;2.30;;;;;;;33.20;33.52;100800.36;106215;1254;64231;-85
2023/08/12 11:17:18;;;;;;;2.80;2.20;;;;;;;33.24;33.19;100797.96;106383;1256;60458;-85
2023/08/12 11:20:10;;;;;;;8.60;2.10;;;;;;;33.14;33.38;100800.05;106332;1254;60894;-85
2023/08/12 11:23:00;;;;;;;5.20;2.30;;;;;;;33.10;34.37;100796.46;106388;1256;65033;-88
2023/08/12 11:25:49;;;;;;;3.00;1.80;;;;;;;33.18;34.34;100796.35;106621;1254;60556;-85
2023/08/12 11:28:38;;;;;;;6.10;2.30;;;;;;;33.34;34.48;100795.52;106557;1254;65136;-87
2023/08/12 11:31:27;;;;;;;4.10;1.90;;;;;;;33.53;33.07;100799.46;106176;1256;60374;-86
2023/08/12 11:34:15;;;;;;;3.50;2.10;;;;;;;33.70;32.25;100800.52;106334;1254;60418;-85
2023/08/12 11:37:03;;;;;;;2.30;1.90;;;;;;;33.85;33.07;100800.90;106460;1256;66893;-85
2023/08/12 11:39:54;;;;;;;2.20;1.70;;;;;;;33.90;33.28;100801.94;106149;1254;60597;-86
2023/08/12 11:42:44;;;;;;;2.60;1.90;;;;;;;34.09;32.22;100803.65;106212;1254;64843;-85
2023/08/12 11:45:33;;;;;;;5.10;2.20;;;;;;;34.25;31.48;100799.70;106289;1253;60472;-88
2023/08/12 11:48:23;;;;;;;5.00;1.90;;;;;;;34.39;31.63;100800.64;106017;1254;60456;-85
2023/08/12 11:51:11;;;;;;;2.50;2.10;;;;;;;34.55;31.62;100801.46;106489;1254;67143;-87
2023/08/12 11:54:00;;;;;;;5.20;2.10;;;;;;;34.77;31.12;100804.52;106335;1257;60487;-88
2023/08/12 11:56:48;;;;;;;3.50;1.90;;;;;;;34.90;29.80;100800.26;106314;1257;64804;-88
2023/08/12 11:59:36;;;;;;;5.10;2.10;;;;;;;34.96;30.18;100797.86;106390;1254;60416;-84
2023/08/12 12:02:25;;;;;;;6.20;2.00;;;;;;;35.02;29.66;100798.60;106467;1254;60444;-87
2023/08/12 12:05:14;;;;;;;6.10;2.20;;;;;;;35.23;29.41;100798.65;106451;1254;66710;-87
2023/08/12 12:08:05;;;;;;;5.10;2.00;;;;;;;35.38;29.96;100802.11;106239;1256;61222;-86
2023/08/12 12:10:54;;;;;;;2.80;2.20;;;;;;;35.58;30.90;100800.04;106255;1257;65046;-88
2023/08/12 12:13:42;;;;;;;4.00;2.00;;;;;;;35.83;30.84;100799.39;106149;1252;60454;-88
2023/08/12 12:16:41;;;;;;;6.10;2.20;;;;;;;35.90;30.66;100803.68;106010;1259;60911;-89
2023/08/12 12:19:29;;;;;;;3.10;1.80;;;;;;;35.95;29.62;100800.05;106519;1254;66234;-84
2023/08/12 12:22:18;;;;;;;3.50;1.80;;;;;;;35.99;29.59;100794.77;106352;1256;61243;-88
2023/08/12 12:25:11;;;;;;;2.40;1.90;;;;;;;35.88;30.58;100794.23;106309;1253;65077;-84
2023/08/12 12:27:59;;;;;;;4.00;1.80;;;;;;;35.67;30.19;100796.23;106391;1254;60960;-86
2023/08/12 12:30:47;;;;;;;4.90;2.30;;;;;;;35.53;30.54;100798.92;106363;1252;60427;-85
2023/08/12 12:33:36;;;;;;;4.50;2.70;;;;;;;35.34;31.29;100796.91;106268;1256;66160;-86
2023/08/12 12:36:24;;;;;;;5.90;2.70;;;;;;;35.15;30.77;100800.77;106431;1254;60562;-88
2023/08/12 12:39:12;;;;;;;4.20;2.70;;;;;;;34.91;30.44;100796.44;106516;1254;65962;-84
2023/08/12 12:42:00;;;;;;;2.90;2.20;;;;;;;34.55;30.84;100801.61;106325;1257;60456;-85
2023/08/12 12:44:49;;;;;;;3.20;2.20;;;;;;;34.15;31.29;100804.82;106148;1254;60463;-86
2023/08/12 12:47:38;;;;;;;8.00;2.60;;;;;;;33.74;31.95;100802.70;106206;1254;66162;-88
2023/08/12 12:50:26;;;;;;;8.50;3.40;;;;;;;33.45;32.58;100798.29;106224;1257;60313;-86
2023/08/12 12:53:14;;;;;;;4.30;2.10;;;;;;;33.16;33.21;100798.80;106188;1256;62683;-87